Time;durP1;ratioP1;P1;durP2;ratioP2;P2;SDS_P1;SDS_P2;PMS_P1;PMS_P2;Temp;Humidity;BMP_temperature;BMP_pressure;BME280_temperature;BME280_humidity;BME280_pressure;Samples;Min_cycle;Max_cycle;Signal;HPM_P1;HPM_P2
2023/12/16 00:00:59;;;;;;;14.40;6.00;;;7.10;99.90;;;;;;4982295;28;20618;-87
2023/12/16 00:03:28;;;;;;;17.38;5.55;;;7.10;99.90;;;;;;5002592;28;20068;-90
2023/12/16 00:05:53;;;;;;;16.75;5.13;;;7.10;99.90;;;;;;4981882;28;20030;-88
2023/12/16 00:08:22;;;;;;;17.73;5.95;;;7.10;99.90;;;;;;4967542;28;20030;-89
2023/12/16 00:10:47;;;;;;;13.40;5.47;;;7.00;99.90;;;;;;4970489;28;20060;-88
2023/12/16 00:13:13;;;;;;;6.47;2.15;;;7.00;99.90;;;;;;4982476;28;20026;-85
2023/12/16 00:15:38;;;;;;;26.58;7.22;;;7.00;99.90;;;;;;4980847;28;20121;-85
2023/12/16 00:18:04;;;;;;;16.98;5.18;;;7.20;99.90;;;;;;4964200;28;20034;-85
2023/12/16 00:20:30;;;;;;;17.20;5.70;;;7.10;99.90;;;;;;4995245;28;20029;-85
2023/12/16 00:22:58;;;;;;;24.55;7.95;;;7.10;99.90;;;;;;4991586;28;20390;-85
2023/12/16 00:25:24;;;;;;;16.38;5.63;;;7.10;99.90;;;;;;4978675;28;20030;-84
2023/12/16 00:27:53;;;;;;;16.05;4.97;;;7.00;99.90;;;;;;4996293;28;20541;-83
2023/12/16 00:30:18;;;;;;;15.90;4.97;;;7.20;99.90;;;;;;4980942;28;20189;-85
2023/12/16 00:32:44;;;;;;;18.98;6.18;;;7.10;99.90;;;;;;4968317;28;20542;-85
2023/12/16 00:35:12;;;;;;;18.70;5.53;;;7.00;99.90;;;;;;4968971;28;20057;-85
2023/12/16 00:37:37;;;;;;;14.25;5.18;;;7.10;99.90;;;;;;4989487;28;20033;-89
2023/12/16 00:40:07;;;;;;;8.32;3.03;;;7.10;99.90;;;;;;4961595;28;20034;-89
2023/12/16 00:42:32;;;;;;;18.65;5.43;;;7.00;99.90;;;;;;4979854;28;20061;-88
2023/12/16 00:44:58;;;;;;;20.02;5.82;;;7.00;99.90;;;;;;4978688;28;20038;-89
2023/12/16 00:47:25;;;;;;;10.93;4.50;;;7.10;99.90;;;;;;4978236;28;20417;-87
2023/12/16 00:49:53;;;;;;;21.42;6.55;;;7.00;99.90;;;;;;4968191;28;20033;-88
2023/12/16 00:52:19;;;;;;;11.95;5.40;;;7.00;99.90;;;;;;4977449;28;20498;-88
2023/12/16 00:54:52;;;;;;;20.42;5.00;;;7.10;99.90;;;;;;4995566;28;20042;-87
2023/12/16 00:57:17;;;;;;;17.00;6.20;;;7.00;99.90;;;;;;4988593;28;20040;-89
2023/12/16 00:59:43;;;;;;;19.10;6.38;;;7.00;99.90;;;;;;4957711;28;20030;-88
2023/12/16 01:02:08;;;;;;;16.00;5.93;;;7.00;99.90;;;;;;4983981;28;20038;-85
2023/12/16 01:04:34;;;;;;;17.02;6.00;;;7.10;99.90;;;;;;4979044;28;20037;-89
2023/12/16 01:07:02;;;;;;;13.48;5.65;;;7.10;99.90;;;;;;4964748;28;20031;-88
2023/12/16 01:09:27;;;;;;;22.15;7.07;;;7.10;99.90;;;;;;4983396;28;20034;-88
2023/12/16 01:11:53;;;;;;;22.42;6.80;;;7.10;99.90;;;;;;4982061;28;20037;-87
2023/12/16 01:14:24;;;;;;;25.33;6.45;;;7.00;99.90;;;;;;4984668;28;20037;-88
2023/12/16 01:16:49;;;;;;;11.82;5.35;;;7.10;99.90;;;;;;4995033;28;20029;-87
2023/12/16 01:19:15;;;;;;;17.92;6.20;;;7.00;99.90;;;;;;4962087;28;20040;-88
2023/12/16 01:21:44;;;;;;;17.73;5.45;;;7.10;99.90;;;;;;4967032;28;20038;-88
2023/12/16 01:24:09;;;;;;;10.05;5.32;;;7.00;99.90;;;;;;4974205;28;20569;-87
2023/12/16 01:26:35;;;;;;;17.30;6.32;;;7.00;99.90;;;;;;4958827;28;20162;-89
2023/12/16 01:29:01;;;;;;;18.85;5.75;;;6.90;99.90;;;;;;4981448;28;20168;-89
2023/12/16 01:31:33;;;;;;;18.48;5.72;;;7.00;99.90;;;;;;4967816;28;20113;-89
2023/12/16 01:34:01;;;;;;;14.57;5.45;;;7.00;99.90;;;;;;4957657;28;20031;-88
2023/12/16 01:36:30;;;;;;;16.98;8.02;;;7.10;99.90;;;;;;4962317;28;20033;-86
2023/12/16 01:38:58;;;;;;;14.55;5.15;;;7.00;99.90;;;;;;4993728;28;20035;-87
2023/12/16 01:41:23;;;;;;;17.70;4.65;;;7.10;99.90;;;;;;4986690;28;20045;-83
2023/12/16 01:43:51;;;;;;;16.10;7.13;;;7.00;99.90;;;;;;4972301;28;20038;-84
2023/12/16 01:46:17;;;;;;;14.57;6.55;;;7.10;99.90;;;;;;4960450;28;20068;-84
2023/12/16 01:48:43;;;;;;;18.60;5.57;;;7.10;99.90;;;;;;4983837;28;20109;-82
2023/12/16 01:51:08;;;;;;;14.20;4.85;;;7.10;99.90;;;;;;4994477;28;20387;-83
2023/12/16 01:53:37;;;;;;;14.23;4.60;;;7.10;99.90;;;;;;4993878;28;20040;-82
2023/12/16 01:56:03;;;;;;;9.88;4.00;;;7.10;99.90;;;;;;4978353;28;20065;-81
2023/12/16 01:58:29;;;;;;;13.63;4.80;;;7.20;99.90;;;;;;4964585;28;20631;-82
2023/12/16 02:00:54;;;;;;;17.80;4.10;;;7.10;99.90;;;;;;4992407;28;20113;-83
2023/12/16 02:03:21;;;;;;;15.75;4.80;;;7.10;99.90;;;;;;4964689;28;20517;-84
2023/12/16 02:05:47;;;;;;;9.52;3.92;;;7.10;99.90;;;;;;4978231;28;20501;-84
2023/12/16 02:08:12;;;;;;;13.63;3.90;;;7.00;99.90;;;;;;4980382;28;20081;-83
2023/12/16 02:10:38;;;;;;;28.33;5.13;;;7.10;99.90;;;;;;4979999;28;20038;-83
2023/12/16 02:13:04;;;;;;;16.30;4.15;;;7.10;99.90;;;;;;4954265;28;20034;-83
2023/12/16 02:15:31;;;;;;;14.82;5.50;;;7.00;99.90;;;;;;4974501;28;20500;-83
2023/12/16 02:17:56;;;;;;;15.10;4.95;;;7.00;99.90;;;;;;4979670;28;20026;-83
2023/12/16 02:20:22;;;;;;;12.82;4.13;;;7.20;99.90;;;;;;4950063;28;20054;-83
2023/12/16 02:22:48;;;;;;;13.25;4.43;;;7.10;99.90;;;;;;4952881;28;20034;-83
2023/12/16 02:25:14;;;;;;;19.48;4.22;;;7.10;99.90;;;;;;4966575;28;20068;-83
2023/12/16 02:27:41;;;;;;;18.25;4.40;;;7.10;99.90;;;;;;4993262;28;20035;-83
2023/12/16 02:30:08;;;;;;;17.73;3.45;;;7.00;99.90;;;;;;4953173;28;20545;-83
2023/12/16 02:32:33;;;;;;;5.35;2.90;;;7.00;99.90;;;;;;4996529;28;20023;-83
2023/12/16 02:34:59;;;;;;;18.88;4.15;;;7.00;99.90;;;;;;4969610;28;20034;-84
2023/12/16 02:37:24;;;;;;;9.75;3.63;;;7.10;99.90;;;;;;4981570;28;20120;-82
2023/12/16 02:39:50;;;;;;;10.77;3.45;;;7.00;99.90;;;;;;4982088;28;20034;-83
2023/12/16 02:42:18;;;;;;;9.93;3.10;;;7.10;99.90;;;;;;4997745;28;20048;-83
2023/12/16 02:44:44;;;;;;;9.55;4.15;;;7.10;99.90;;;;;;4970969;28;20452;-83
2023/12/16 02:47:10;;;;;;;11.73;3.70;;;7.10;99.90;;;;;;5000091;28;20268;-83
2023/12/16 02:49:35;;;;;;;5.10;2.53;;;7.10;99.90;;;;;;4971967;28;20030;-83
2023/12/16 02:52:01;;;;;;;15.02;3.70;;;7.10;99.90;;;;;;5001939;28;20038;-87
2023/12/16 02:54:27;;;;;;;13.05;3.92;;;7.10;99.90;;;;;;5001058;28;20626;-87
2023/12/16 02:56:56;;;;;;;17.77;4.40;;;7.00;99.90;;;;;;4981443;28;20038;-85
2023/12/16 02:59:21;;;;;;;1.60;1.08;;;7.20;99.90;;;;;;4985740;28;20025;-89
2023/12/16 03:01:47;;;;;;;19.58;4.10;;;7.10;99.90;;;;;;4986055;28;20536;-88
2023/12/16 03:04:12;;;;;;;10.45;3.75;;;7.00;99.90;;;;;;4981204;28;20065;-86
2023/12/16 03:06:44;;;;;;;13.38;3.47;;;7.00;99.90;;;;;;4970060;28;20030;-88
2023/12/16 03:09:10;;;;;;;9.88;3.70;;;6.90;99.90;;;;;;4984325;28;20121;-87
2023/12/16 03:11:38;;;;;;;15.70;4.65;;;7.10;99.90;;;;;;4979586;28;20106;-88
2023/12/16 03:14:04;;;;;;;10.35;3.20;;;7.20;99.90;;;;;;4983023;28;20064;-88
2023/12/16 03:16:32;;;;;;;9.90;3.55;;;7.10;99.90;;;;;;4982208;28;20034;-88
2023/12/16 03:18:57;;;;;;;7.38;1.67;;;7.00;99.90;;;;;;4966588;28;20497;-86
2023/12/16 03:21:23;;;;;;;10.85;3.05;;;7.10;99.90;;;;;;4982377;28;20041;-87
2023/12/16 03:23:48;;;;;;;13.30;3.33;;;7.10;99.90;;;;;;4974770;28;20041;-87
2023/12/16 03:26:14;;;;;;;7.93;2.25;;;7.00;99.90;;;;;;4971272;28;20045;-87
2023/12/16 03:28:39;;;;;;;13.82;2.97;;;7.00;99.90;;;;;;4978107;28;20034;-88
2023/12/16 03:31:05;;;;;;;12.77;2.85;;;7.10;99.90;;;;;;4983969;28;20036;-88
2023/12/16 03:33:31;;;;;;;15.50;2.53;;;7.10;99.90;;;;;;4986290;28;20105;-87
2023/12/16 03:35:59;;;;;;;9.70;2.42;;;7.00;99.90;;;;;;5000859;28;20035;-87
2023/12/16 03:38:27;;;;;;;10.80;2.95;;;7.10;99.90;;;;;;4997813;28;20034;-87
2023/12/16 03:40:53;;;;;;;9.07;2.75;;;7.10;99.90;;;;;;4999410;28;20088;-87
2023/12/16 03:43:18;;;;;;;9.93;2.83;;;7.10;99.90;;;;;;4971038;28;20034;-87
2023/12/16 03:45:44;;;;;;;7.60;2.67;;;7.10;99.90;;;;;;4978432;28;20033;-88
2023/12/16 03:48:10;;;;;;;12.18;2.50;;;7.10;99.90;;;;;;4969910;28;20371;-87
2023/12/16 03:50:35;;;;;;;13.45;3.00;;;7.10;99.90;;;;;;4985989;28;20028;-86
2023/12/16 03:53:04;;;;;;;10.20;1.65;;;7.10;99.90;;;;;;4968677;28;20056;-87
2023/12/16 03:55:31;;;;;;;9.90;2.70;;;7.10;99.90;;;;;;4964584;28;20048;-88
2023/12/16 03:57:58;;;;;;;9.95;3.05;;;7.10;99.90;;;;;;4969731;28;20185;-86
2023/12/16 04:00:23;;;;;;;12.32;3.10;;;7.10;99.90;;;;;;4985124;28;20505;-87
2023/12/16 04:02:49;;;;;;;10.27;2.40;;;7.10;99.90;;;;;;4969236;28;20058;-82
2023/12/16 04:05:14;;;;;;;13.57;2.78;;;7.10;99.90;;;;;;4994702;28;20505;-82
2023/12/16 04:07:40;;;;;;;11.48;3.22;;;7.10;99.90;;;;;;4975050;28;20437;-82
2023/12/16 04:10:06;;;;;;;10.13;3.13;;;7.10;99.90;;;;;;4964522;28;20039;-82
2023/12/16 04:12:32;;;;;;;9.75;2.72;;;7.10;99.90;;;;;;4966242;28;20177;-83
2023/12/16 04:14:58;;;;;;;13.55;2.83;;;7.10;99.90;;;;;;4974610;28;20045;-82
2023/12/16 04:17:23;;;;;;;15.60;3.80;;;7.10;99.90;;;;;;4972235;28;20046;-82
2023/12/16 04:19:51;;;;;;;10.65;2.80;;;7.10;99.90;;;;;;4976672;28;20034;-83
2023/12/16 04:22:19;;;;;;;10.40;2.60;;;7.10;99.90;;;;;;4982546;28;20059;-83
2023/12/16 04:24:45;;;;;;;7.75;2.25;;;7.10;99.90;;;;;;4977244;28;20039;-82
2023/12/16 04:27:10;;;;;;;11.05;2.17;;;7.10;99.90;;;;;;4996905;28;20045;-82
2023/12/16 04:29:36;;;;;;;11.20;2.85;;;7.10;99.90;;;;;;4994932;28;20711;-82
2023/12/16 04:32:01;;;;;;;9.48;3.17;;;7.10;99.90;;;;;;4966548;28;20038;-82
2023/12/16 04:34:27;;;;;;;4.85;1.73;;;7.10;99.90;;;;;;4981692;28;20432;-82
2023/12/16 04:36:52;;;;;;;20.50;3.72;;;7.10;99.90;;;;;;4993158;28;20061;-82
2023/12/16 04:39:18;;;;;;;9.05;2.65;;;7.10;99.90;;;;;;4966084;28;20030;-83
2023/12/16 04:41:44;;;;;;;13.52;3.65;;;7.10;99.90;;;;;;4994218;28;20536;-82
2023/12/16 04:44:09;;;;;;;15.65;3.35;;;7.10;99.90;;;;;;4982389;28;20026;-83
2023/12/16 04:46:35;;;;;;;14.73;3.08;;;7.10;99.90;;;;;;4980417;28;20453;-83
2023/12/16 04:49:01;;;;;;;8.43;2.35;;;7.10;99.90;;;;;;4992918;28;20041;-82
2023/12/16 04:51:27;;;;;;;8.82;2.40;;;7.10;99.90;;;;;;4965057;28;20572;-82
2023/12/16 04:53:53;;;;;;;10.63;2.47;;;7.00;99.90;;;;;;4981774;28;20113;-82
2023/12/16 04:56:18;;;;;;;11.95;3.53;;;7.00;99.90;;;;;;4975767;28;20050;-82
2023/12/16 04:58:44;;;;;;;13.05;4.18;;;7.00;99.90;;;;;;4961842;28;20026;-88
2023/12/16 05:01:13;;;;;;;15.02;3.25;;;7.00;99.90;;;;;;4994371;28;20361;-87
2023/12/16 05:03:40;;;;;;;10.25;3.10;;;6.90;99.90;;;;;;4995663;28;20056;-86
2023/12/16 05:06:06;;;;;;;12.93;3.95;;;7.00;99.90;;;;;;4982915;28;20513;-87
2023/12/16 05:08:35;;;;;;;10.38;2.60;;;6.90;99.90;;;;;;4960445;28;20114;-88
2023/12/16 05:11:00;;;;;;;5.28;2.30;;;6.90;99.90;;;;;;4990483;28;20552;-88
2023/12/16 05:13:26;;;;;;;3.17;1.27;;;6.90;99.90;;;;;;4966714;28;20034;-83
2023/12/16 05:15:51;;;;;;;5.95;1.88;;;7.00;99.90;;;;;;4991330;28;20030;-83
2023/12/16 05:18:18;;;;;;;14.15;2.90;;;6.90;99.90;;;;;;4979329;28;20083;-83
2023/12/16 05:20:43;;;;;;;2.35;1.20;;;7.00;99.90;;;;;;4966471;28;20026;-82
2023/12/16 05:23:09;;;;;;;9.25;2.97;;;7.00;99.90;;;;;;4979382;28;20037;-83
2023/12/16 05:25:35;;;;;;;12.50;3.35;;;7.00;99.90;;;;;;4991566;28;20038;-83
2023/12/16 05:28:01;;;;;;;9.45;3.65;;;6.90;99.90;;;;;;4990078;28;20040;-83
2023/12/16 05:30:27;;;;;;;6.88;2.10;;;7.00;99.90;;;;;;4966796;28;20026;-82
2023/12/16 05:32:53;;;;;;;14.60;4.47;;;7.00;99.90;;;;;;4992737;28;20096;-83
2023/12/16 05:35:19;;;;;;;10.43;2.88;;;7.00;99.90;;;;;;4966608;28;20066;-83
2023/12/16 05:37:45;;;;;;;9.82;3.33;;;7.00;99.90;;;;;;4980533;28;20234;-83
2023/12/16 05:40:11;;;;;;;11.77;3.50;;;7.00;99.90;;;;;;4979872;28;20045;-83
2023/12/16 05:42:36;;;;;;;8.15;2.38;;;6.90;99.90;;;;;;4966463;28;20038;-83
2023/12/16 05:45:02;;;;;;;7.45;2.00;;;7.00;99.90;;;;;;4991162;28;20038;-83
2023/12/16 05:47:28;;;;;;;8.68;2.90;;;7.00;99.90;;;;;;4961337;28;20041;-82
2023/12/16 05:49:53;;;;;;;8.93;3.03;;;7.00;99.90;;;;;;4967374;28;20406;-82
2023/12/16 05:52:19;;;;;;;5.47;2.75;;;7.00;99.90;;;;;;4980879;28;20041;-82
2023/12/16 05:54:45;;;;;;;10.20;3.20;;;7.00;99.90;;;;;;4983638;28;20525;-83
2023/12/16 05:57:14;;;;;;;12.18;3.33;;;6.90;99.90;;;;;;4970612;28;20042;-83
2023/12/16 05:59:39;;;;;;;14.40;4.15;;;7.00;99.90;;;;;;4981879;28;20068;-82
2023/12/16 06:02:05;;;;;;;8.05;2.25;;;7.00;99.90;;;;;;4977824;28;20061;-83
2023/12/16 06:04:33;;;;;;;12.57;3.60;;;7.00;99.90;;;;;;4991573;28;20042;-82
2023/12/16 06:06:59;;;;;;;10.27;3.70;;;7.00;99.90;;;;;;4992698;28;20034;-83
2023/12/16 06:09:25;;;;;;;5.85;2.25;;;7.00;99.90;;;;;;4978970;28;20133;-83
2023/12/16 06:11:50;;;;;;;10.15;2.28;;;7.00;99.90;;;;;;4987219;28;20033;-82
2023/12/16 06:14:16;;;;;;;8.73;2.92;;;7.00;99.90;;;;;;4969662;28;20406;-83
2023/12/16 06:16:42;;;;;;;3.80;1.55;;;7.00;99.90;;;;;;4969124;28;20440;-83
2023/12/16 06:19:07;;;;;;;7.78;2.28;;;7.00;99.90;;;;;;4996054;28;20029;-83
2023/12/16 06:21:33;;;;;;;8.45;2.95;;;7.00;99.90;;;;;;4980137;28;20109;-83
2023/12/16 06:24:00;;;;;;;16.02;3.67;;;7.00;99.90;;;;;;4985904;28;20038;-83
2023/12/16 06:26:25;;;;;;;13.73;2.80;;;7.00;99.90;;;;;;4994850;28;20105;-82
2023/12/16 06:28:51;;;;;;;9.23;2.28;;;7.00;99.90;;;;;;4979471;28;20083;-82
2023/12/16 06:31:17;;;;;;;8.25;2.10;;;7.10;99.90;;;;;;4981102;28;20038;-83
2023/12/16 06:33:45;;;;;;;11.98;3.33;;;7.00;99.90;;;;;;4982827;28;20038;-83
2023/12/16 06:36:11;;;;;;;14.25;3.90;;;7.00;99.90;;;;;;4992963;28;20315;-83
2023/12/16 06:38:37;;;;;;;14.27;2.83;;;7.00;99.90;;;;;;4995751;28;20041;-82
2023/12/16 06:41:03;;;;;;;5.05;2.15;;;7.00;99.90;;;;;;4995206;28;20031;-83
2023/12/16 06:43:28;;;;;;;2.03;1.20;;;7.00;99.90;;;;;;4970845;28;20033;-83
2023/12/16 06:45:55;;;;;;;3.05;2.05;;;7.10;99.90;;;;;;4997588;28;20041;-82
2023/12/16 06:48:22;;;;;;;10.63;1.73;;;7.00;99.90;;;;;;4968027;28;20556;-83
2023/12/16 06:50:49;;;;;;;6.78;2.15;;;7.00;99.90;;;;;;4980837;28;20035;-82
2023/12/16 06:53:15;;;;;;;4.75;2.20;;;7.10;99.90;;;;;;4977573;28;20029;-82
2023/12/16 06:55:41;;;;;;;6.55;2.15;;;7.00;99.90;;;;;;4983381;28;20089;-83
2023/12/16 06:58:07;;;;;;;7.70;1.92;;;7.10;99.90;;;;;;4979067;28;20109;-83
2023/12/16 07:00:33;;;;;;;9.05;2.83;;;7.10;99.90;;;;;;4976276;28;20098;-82
2023/12/16 07:02:59;;;;;;;5.35;2.65;;;7.10;99.90;;;;;;4981027;28;20501;-82
2023/12/16 07:05:25;;;;;;;9.15;2.30;;;7.00;99.90;;;;;;4968851;28;20029;-83
2023/12/16 07:07:50;;;;;;;12.80;3.17;;;7.10;99.90;;;;;;4983468;28;20030;-83
2023/12/16 07:10:16;;;;;;;12.02;3.00;;;7.10;99.90;;;;;;4977321;28;20039;-83
2023/12/16 07:12:41;;;;;;;14.43;3.50;;;7.10;99.90;;;;;;4981436;28;20056;-83
2023/12/16 07:15:08;;;;;;;16.95;3.28;;;7.10;99.90;;;;;;4969406;28;20040;-83
2023/12/16 07:17:33;;;;;;;17.02;3.97;;;7.10;99.90;;;;;;4974374;28;20113;-83
2023/12/16 07:19:59;;;;;;;12.52;3.08;;;7.10;99.90;;;;;;4976766;28;20027;-82
2023/12/16 07:22:24;;;;;;;8.35;2.20;;;7.10;99.90;;;;;;4985708;28;20034;-83
2023/12/16 07:24:51;;;;;;;8.40;3.08;;;7.10;99.90;;;;;;4995037;28;20042;-83
2023/12/16 07:27:17;;;;;;;10.50;3.25;;;7.10;99.90;;;;;;4962582;28;20038;-83
2023/12/16 07:29:42;;;;;;;10.02;2.83;;;7.10;99.90;;;;;;4994463;28;20477;-83
2023/12/16 07:32:08;;;;;;;8.23;3.08;;;7.10;99.90;;;;;;4994297;28;20127;-83
2023/12/16 07:34:33;;;;;;;3.13;1.58;;;7.10;99.90;;;;;;4983154;28;20438;-86
2023/12/16 07:36:59;;;;;;;18.13;3.40;;;7.10;99.90;;;;;;4977853;28;20042;-85
2023/12/16 07:39:24;;;;;;;12.02;2.92;;;7.10;99.90;;;;;;4977287;28;20032;-86
2023/12/16 07:41:50;;;;;;;8.43;1.90;;;7.00;99.90;;;;;;4983310;28;20044;-86
2023/12/16 07:44:15;;;;;;;6.75;1.83;;;7.10;99.90;;;;;;4978862;28;20049;-84
2023/12/16 07:46:41;;;;;;;9.98;1.52;;;7.10;99.90;;;;;;4979682;28;20555;-86
2023/12/16 07:49:07;;;;;;;6.82;1.73;;;7.10;99.90;;;;;;4980672;28;20080;-84
2023/12/16 07:51:36;;;;;;;3.85;1.02;;;7.00;99.90;;;;;;4981387;28;20042;-86
2023/12/16 07:54:03;;;;;;;7.43;2.60;;;7.00;99.90;;;;;;4996637;28;20038;-85
2023/12/16 07:56:29;;;;;;;18.20;2.55;;;7.00;99.90;;;;;;4968860;28;20498;-85
2023/12/16 07:58:55;;;;;;;9.75;1.92;;;7.00;99.90;;;;;;4982639;28;20069;-85
2023/12/16 08:01:20;;;;;;;10.02;1.88;;;7.00;99.90;;;;;;4966330;28;20085;-84
2023/12/16 08:03:46;;;;;;;7.90;2.17;;;7.00;99.90;;;;;;4979814;28;20114;-85
2023/12/16 08:06:14;;;;;;;14.40;3.38;;;6.90;99.90;;;;;;4974597;28;20027;-84
2023/12/16 08:08:40;;;;;;;11.02;3.13;;;6.90;99.90;;;;;;4996706;28;20030;-86
2023/12/16 08:11:06;;;;;;;7.95;2.33;;;6.90;99.90;;;;;;4978243;28;20034;-85
2023/12/16 08:13:32;;;;;;;7.53;2.75;;;6.90;99.90;;;;;;4976636;28;20061;-85
2023/12/16 08:15:57;;;;;;;11.52;2.75;;;6.90;99.90;;;;;;4992479;28;20042;-84
2023/12/16 08:18:23;;;;;;;9.15;2.13;;;6.80;99.90;;;;;;4981257;28;20030;-84
2023/12/16 08:20:48;;;;;;;17.02;3.03;;;6.80;99.90;;;;;;4982680;28;20243;-85
2023/12/16 08:23:15;;;;;;;15.30;3.20;;;6.80;99.90;;;;;;4981875;28;20049;-85
2023/12/16 08:25:41;;;;;;;14.48;3.70;;;6.90;99.90;;;;;;4979389;28;21380;-85
2023/12/16 08:28:06;;;;;;;11.05;3.05;;;6.90;99.90;;;;;;4967687;28;20080;-85
2023/12/16 08:30:32;;;;;;;11.70;2.85;;;6.90;99.90;;;;;;4968573;28;20533;-82
2023/12/16 08:32:57;;;;;;;12.40;2.78;;;6.90;99.90;;;;;;4978660;28;20591;-85
2023/12/16 08:35:23;;;;;;;9.77;1.92;;;6.90;99.90;;;;;;4979561;28;20054;-84
2023/12/16 08:37:48;;;;;;;11.88;3.35;;;7.10;99.90;;;;;;4980169;28;20037;-89
2023/12/16 08:40:14;;;;;;;9.25;2.58;;;7.10;99.90;;;;;;4964575;28;20088;-81
2023/12/16 08:42:42;;;;;;;8.02;3.22;;;7.10;99.90;;;;;;4994488;28;20033;-82
2023/12/16 08:45:09;;;;;;;7.95;2.08;;;7.20;99.90;;;;;;4980759;28;20054;-82
2023/12/16 08:47:34;;;;;;;14.15;2.80;;;7.30;99.90;;;;;;4981770;28;20448;-82
2023/12/16 08:50:00;;;;;;;8.40;3.00;;;7.20;99.90;;;;;;4996835;28;20058;-82
2023/12/16 08:52:27;;;;;;;12.55;3.95;;;7.20;99.90;;;;;;4970010;28;20062;-81
2023/12/16 08:54:52;;;;;;;13.93;3.42;;;7.30;99.90;;;;;;4978624;28;20034;-81
2023/12/16 08:57:18;;;;;;;9.02;2.25;;;7.30;99.90;;;;;;4977481;28;20040;-81
2023/12/16 08:59:43;;;;;;;8.05;1.90;;;7.30;99.90;;;;;;4960080;28;20034;-81
2023/12/16 09:02:12;;;;;;;9.90;2.05;;;7.40;99.90;;;;;;4980791;28;20112;-82
2023/12/16 09:04:37;;;;;;;10.23;2.10;;;7.40;99.90;;;;;;4997725;28;20034;-82
2023/12/16 09:07:03;;;;;;;8.60;2.67;;;7.40;99.90;;;;;;4976632;28;20040;-82
2023/12/16 09:09:29;;;;;;;7.90;1.52;;;7.40;99.90;;;;;;4992193;28;20043;-82
2023/12/16 09:11:54;;;;;;;1.77;0.93;;;7.40;99.90;;;;;;4972937;28;20553;-82
2023/12/16 09:14:20;;;;;;;3.67;0.90;;;7.40;99.90;;;;;;4976584;28;20512;-82
2023/12/16 09:16:45;;;;;;;5.63;2.00;;;7.50;99.90;;;;;;4996878;28;20385;-82
2023/12/16 09:19:11;;;;;;;9.10;2.67;;;7.50;99.90;;;;;;4982787;28;20098;-82
2023/12/16 09:21:41;;;;;;;10.02;2.20;;;7.50;99.90;;;;;;4981455;28;20490;-81
2023/12/16 09:24:07;;;;;;;3.70;2.40;;;7.60;99.90;;;;;;4981480;28;20490;-82
2023/12/16 09:26:32;;;;;;;15.57;3.00;;;7.70;99.90;;;;;;4977601;28;20092;-82
2023/12/16 09:28:59;;;;;;;14.43;2.83;;;7.70;99.90;;;;;;4974677;28;20034;-81
2023/12/16 09:31:27;;;;;;;4.78;1.55;;;7.70;99.90;;;;;;4981820;28;20041;-82
2023/12/16 09:33:53;;;;;;;15.13;3.42;;;7.80;99.90;;;;;;4980676;28;20041;-81
2023/12/16 09:36:19;;;;;;;8.05;2.03;;;7.80;99.90;;;;;;4980891;28;20486;-82
2023/12/16 09:38:44;;;;;;;7.75;1.85;;;7.90;99.90;;;;;;4981200;28;20030;-82
2023/12/16 09:41:28;;;;;;;12.45;2.53;;;7.90;99.90;;;;;;4965611;28;20188;-82
2023/12/16 09:43:55;;;;;;;11.57;2.85;;;7.90;99.90;;;;;;4981798;28;20506;-81
2023/12/16 09:46:22;;;;;;;13.23;2.95;;;7.90;99.90;;;;;;4966534;28;20401;-82
2023/12/16 09:48:48;;;;;;;8.60;2.65;;;8.00;99.90;;;;;;4967079;28;20057;-81
2023/12/16 09:51:13;;;;;;;10.98;2.60;;;8.00;99.90;;;;;;4974776;28;20458;-81
2023/12/16 09:53:39;;;;;;;14.48;2.20;;;8.10;99.90;;;;;;4993640;28;20423;-81
2023/12/16 09:56:05;;;;;;;7.88;3.08;;;8.10;99.90;;;;;;4976776;28;20128;-81
2023/12/16 09:58:33;;;;;;;11.23;3.10;;;8.20;99.90;;;;;;4984089;28;20045;-90
2023/12/16 10:00:58;;;;;;;8.45;2.58;;;8.20;99.90;;;;;;4983165;28;20063;-93
2023/12/16 10:03:24;;;;;;;4.60;1.05;;;8.20;99.90;;;;;;5012116;28;20030;-87
2023/12/16 10:05:50;;;;;;;11.75;3.15;;;8.30;99.90;;;;;;4985647;28;20062;-87
2023/12/16 10:08:18;;;;;;;12.02;2.97;;;8.30;99.90;;;;;;4980564;28;20049;-82
2023/12/16 10:10:46;;;;;;;9.35;2.13;;;8.30;99.90;;;;;;4985925;28;20020;-84
2023/12/16 10:13:22;;;;;;;7.60;2.42;;;8.40;99.90;;;;;;4981714;28;20280;-83
2023/12/16 10:15:48;;;;;;;11.38;2.50;;;8.40;99.90;;;;;;4978586;28;20046;-89
2023/12/16 10:18:13;;;;;;;8.20;2.10;;;8.50;99.90;;;;;;4973337;28;20062;-89
2023/12/16 10:20:41;;;;;;;14.13;3.42;;;8.60;99.90;;;;;;4986422;28;20038;-92
2023/12/16 10:23:08;;;;;;;8.85;2.83;;;8.60;99.90;;;;;;4984579;28;20034;-91
2023/12/16 10:25:34;;;;;;;8.20;1.77;;;8.70;99.90;;;;;;4987045;28;20128;-90
2023/12/16 10:28:02;;;;;;;8.40;2.47;;;8.70;99.90;;;;;;4986709;28;20086;-87
2023/12/16 10:30:28;;;;;;;14.20;2.17;;;8.70;99.90;;;;;;4971937;28;20552;-90
2023/12/16 10:32:57;;;;;;;13.63;3.35;;;8.80;99.90;;;;;;4972913;28;20037;-92
2023/12/16 10:35:23;;;;;;;14.60;3.38;;;9.00;99.90;;;;;;4966201;28;20033;-89
2023/12/16 10:37:50;;;;;;;14.13;2.53;;;9.00;99.90;;;;;;4975007;28;20124;-89
2023/12/16 10:40:22;;;;;;;9.60;2.10;;;8.90;99.90;;;;;;4973024;28;20026;-89
2023/12/16 10:42:48;;;;;;;11.18;2.50;;;9.00;99.90;;;;;;4986848;28;20033;-91
2023/12/16 10:45:14;;;;;;;12.20;2.42;;;9.00;99.90;;;;;;4972119;28;20042;-92
2023/12/16 10:47:43;;;;;;;11.48;2.05;;;9.10;99.90;;;;;;4968784;28;20096;-93
2023/12/16 10:50:10;;;;;;;5.25;0.95;;;9.10;99.90;;;;;;4978849;28;20034;-90
2023/12/16 10:52:40;;;;;;;14.13;2.33;;;9.10;99.90;;;;;;5006584;28;20102;-90
2023/12/16 10:55:19;;;;;;;5.10;1.90;;;9.20;99.90;;;;;;4993401;28;20393;-88
2023/12/16 10:57:53;;;;;;;9.73;2.72;;;9.30;99.90;;;;;;4989483;28;20037;-85
2023/12/16 11:00:21;;;;;;;12.02;2.17;;;9.30;99.90;;;;;;4969702;28;20062;-93
2023/12/16 11:03:02;;;;;;;17.77;2.05;;;9.30;99.90;;;;;;4971726;28;20580;-88
2023/12/16 11:05:33;;;;;;;12.35;2.42;;;9.30;99.90;;;;;;4981198;28;20034;-82
2023/12/16 11:08:01;;;;;;;10.02;2.50;;;9.30;99.90;;;;;;4978058;28;20038;-82
2023/12/16 11:10:29;;;;;;;10.15;2.92;;;9.30;99.90;;;;;;4980292;28;20402;-81
2023/12/16 11:12:55;;;;;;;8.40;1.80;;;9.30;99.90;;;;;;4968840;28;20457;-81
2023/12/16 11:15:21;;;;;;;23.02;2.50;;;9.40;99.90;;;;;;4968759;28;20045;-83
2023/12/16 11:17:54;;;;;;;9.43;2.10;;;9.50;99.90;;;;;;4972864;28;20456;-82
2023/12/16 11:20:26;;;;;;;6.70;1.83;;;9.40;99.90;;;;;;4973901;28;20045;-83
2023/12/16 11:22:52;;;;;;;7.20;1.83;;;9.40;99.90;;;;;;4981629;28;20029;-82
2023/12/16 11:25:22;;;;;;;11.73;1.73;;;9.30;99.90;;;;;;4967514;28;20037;-82
2023/12/16 11:27:48;;;;;;;5.57;1.83;;;9.30;99.90;;;;;;4971533;28;20570;-82
2023/12/16 11:30:18;;;;;;;7.43;2.40;;;9.40;99.90;;;;;;4964978;28;20034;-82
2023/12/16 11:32:48;;;;;;;6.47;1.95;;;9.40;99.90;;;;;;4976929;28;20489;-82
2023/12/16 11:35:16;;;;;;;14.63;2.42;;;9.50;99.90;;;;;;4965525;28;20034;-82
2023/12/16 11:37:42;;;;;;;12.10;2.33;;;9.40;99.90;;;;;;4982277;28;20065;-82
2023/12/16 11:40:11;;;;;;;6.78;1.88;;;9.40;99.90;;;;;;4968630;28;20104;-82
2023/12/16 11:43:02;;;;;;;11.77;2.53;;;9.40;99.90;;;;;;4971902;28;20066;-82
2023/12/16 11:45:53;;;;;;;12.73;2.42;;;9.50;99.90;;;;;;4978337;28;20053;-82
2023/12/16 11:48:21;;;;;;;13.05;2.40;;;9.40;99.90;;;;;;4967915;28;20564;-82
2023/12/16 11:50:50;;;;;;;9.57;1.58;;;9.40;99.90;;;;;;4983520;28;20472;-82
2023/12/16 11:53:18;;;;;;;12.90;3.47;;;9.40;99.90;;;;;;4991916;28;20477;-82
2023/12/16 11:55:44;;;;;;;13.48;1.48;;;9.40;99.90;;;;;;4972835;28;20770;-82
2023/12/16 11:58:12;;;;;;;11.05;1.77;;;9.40;99.90;;;;;;4963117;28;20205;-82
2023/12/16 12:00:43;;;;;;;9.73;2.20;;;9.40;99.90;;;;;;4981273;28;20034;-82
2023/12/16 12:03:09;;;;;;;6.32;1.45;;;9.40;99.90;;;;;;4970975;28;20034;-82
2023/12/16 12:05:34;;;;;;;14.98;3.22;;;9.30;99.90;;;;;;4981197;28;20065;-82
2023/12/16 12:08:03;;;;;;;14.35;2.78;;;9.50;99.90;;;;;;4996779;28;20181;-81
2023/12/16 12:10:29;;;;;;;11.35;2.85;;;9.40;99.90;;;;;;4983276;28;20501;-81
2023/12/16 12:12:55;;;;;;;14.05;2.80;;;9.40;99.90;;;;;;4979503;28;20061;-81
2023/12/16 12:15:21;;;;;;;14.25;2.10;;;9.60;99.90;;;;;;4983862;28;20497;-90
2023/12/16 12:17:49;;;;;;;13.77;2.78;;;9.40;99.90;;;;;;4969901;28;20065;-88
2023/12/16 12:20:58;;;;;;;7.88;2.65;;;9.50;99.90;;;;;;4978566;28;20541;-91
2023/12/16 12:23:24;;;;;;;10.85;2.60;;;9.30;99.90;;;;;;4987885;28;20060;-87
2023/12/16 12:25:55;;;;;;;13.30;2.88;;;9.50;99.90;;;;;;4970619;28;20043;-86
2023/12/16 12:28:21;;;;;;;10.32;1.70;;;9.50;99.90;;;;;;4981096;28;20478;-86
2023/12/16 12:30:49;;;;;;;11.20;2.95;;;9.50;99.90;;;;;;4983783;28;20113;-85
2023/12/16 12:33:15;;;;;;;19.42;2.58;;;9.50;99.90;;;;;;4967182;28;20034;-86
2023/12/16 12:35:40;;;;;;;9.98;2.00;;;9.60;99.90;;;;;;4982178;28;20061;-85
2023/12/16 12:38:06;;;;;;;11.68;2.92;;;9.60;99.90;;;;;;4994064;28;20037;-86
2023/12/16 12:40:31;;;;;;;12.23;2.75;;;9.60;99.90;;;;;;4979986;28;20113;-84
2023/12/16 12:42:57;;;;;;;4.55;1.60;;;9.90;99.90;;;;;;4991476;28;20031;-85
2023/12/16 12:45:29;;;;;;;4.95;2.10;;;9.90;99.90;;;;;;4976330;28;20092;-84
2023/12/16 12:47:55;;;;;;;14.77;2.88;;;9.70;99.90;;;;;;4996065;28;20379;-83